sensor_id;sensor_type;location;lat;lon;timestamp;pressure;altitude;pressure_sealevel;temperature;humidity
45113;BME280;30873;53.908;27.576;2023-03-23T00:04:14;1011.7;;;11.4;60.6
45113;BME280;30873;53.908;27.576;2023-03-23T00:08:56;1011.7;;;11.4;60.9
45113;BME280;30873;53.908;27.576;2023-03-23T00:14:24;1011.7;;;11.4;61.4
45113;BME280;30873;53.908;27.576;2023-03-23T00:19:12;1011.6;;;11.4;61.6
45113;BME280;30873;53.908;27.576;2023-03-23T00:23:32;1011.5;;;11.3;61.9
45113;BME280;30873;53.908;27.576;2023-03-23T00:29:15;1011.4;;;11.3;62.3
45113;BME280;30873;53.908;27.576;2023-03-23T00:33:59;1011.4;;;11.2;62.5
45113;BME280;30873;53.908;27.576;2023-03-23T00:39:27;1011.4;;;11.2;62.7
45113;BME280;30873;53.908;27.576;2023-03-23T00:44:14;1011.5;;;11.2;63
45113;BME280;30873;53.908;27.576;2023-03-23T00:48:52;1011.4;;;11.3;63.2
45113;BME280;30873;53.908;27.576;2023-03-23T00:54:14;1011.3;;;11.3;63.1
45113;BME280;30873;53.908;27.576;2023-03-23T00:58:58;1011.3;;;11.3;63.2
45113;BME280;30873;53.908;27.576;2023-03-23T01:04:12;1011.3;;;11.3;63.4
45113;BME280;30873;53.908;27.576;2023-03-23T01:09:15;1011.3;;;11.5;63.3
45113;BME280;30873;53.908;27.576;2023-03-23T01:13:32;1011.3;;;11.5;63.4
45113;BME280;30873;53.908;27.576;2023-03-23T01:19:14;1011.2;;;11.5;63.3
45113;BME280;30873;53.908;27.576;2023-03-23T01:23:47;1011.2;;;11.5;63.4
45113;BME280;30873;53.908;27.576;2023-03-23T01:29:28;1011.2;;;11.6;63.4
45113;BME280;30873;53.908;27.576;2023-03-23T01:34:16;1011.1;;;11.5;63.3
45113;BME280;30873;53.908;27.576;2023-03-23T01:38:43;1011.1;;;11.5;63.5
45113;BME280;30873;53.908;27.576;2023-03-23T01:49:00;1011;;;11.6;63.5
45113;BME280;30873;53.908;27.576;2023-03-23T01:54:26;1011;;;11.5;63.6
45113;BME280;30873;53.908;27.576;2023-03-23T01:59:14;1011;;;11.6;63.5
45113;BME280;30873;53.908;27.576;2023-03-23T02:03:33;1010.9;;;11.6;63.6
45113;BME280;30873;53.908;27.576;2023-03-23T02:09:14;1010.9;;;11.5;63.6
45113;BME280;30873;53.908;27.576;2023-03-23T02:14:10;1010.9;;;11.5;63.7
45113;BME280;30873;53.908;27.576;2023-03-23T02:19:35;1010.9;;;11.5;63.8
45113;BME280;30873;53.908;27.576;2023-03-23T02:24:27;1011;;;11.5;63.8
45113;BME280;30873;53.908;27.576;2023-03-23T02:28:51;1011;;;11.5;63.8
45113;BME280;30873;53.908;27.576;2023-03-23T02:34:03;1011;;;11.5;63.9
45113;BME280;30873;53.908;27.576;2023-03-23T02:38:44;1011;;;11.4;64.1
45113;BME280;30873;53.908;27.576;2023-03-23T02:44:28;1010.9;;;11.4;64.4
45113;BME280;30873;53.908;27.576;2023-03-23T02:49:16;1010.9;;;11.4;64.6
45113;BME280;30873;53.908;27.576;2023-03-23T02:53:44;1010.9;;;11.3;64.9
45113;BME280;30873;53.908;27.576;2023-03-23T02:59:16;1010.9;;;11.3;65
45113;BME280;30873;53.908;27.576;2023-03-23T03:03:56;1010.8;;;11.3;65.2
45113;BME280;30873;53.908;27.576;2023-03-23T03:09:28;1010.8;;;11.3;65.4
45113;BME280;30873;53.908;27.576;2023-03-23T03:13:34;1010.8;;;11.3;65.5
45113;BME280;30873;53.908;27.576;2023-03-23T03:18:34;1010.8;;;11.3;65.6
45113;BME280;30873;53.908;27.576;2023-03-23T03:24:17;1010.7;;;11.2;65.8
45113;BME280;30873;53.908;27.576;2023-03-23T03:29:08;1010.7;;;11.1;66.2
45113;BME280;30873;53.908;27.576;2023-03-23T03:34:24;1010.7;;;11.1;66.3
45113;BME280;30873;53.908;27.576;2023-03-23T03:39:07;1010.6;;;11.1;66.4
45113;BME280;30873;53.908;27.576;2023-03-23T03:43:50;1010.6;;;11;66.7
45113;BME280;30873;53.908;27.576;2023-03-23T03:49:14;1010.5;;;11;66.7
45113;BME280;30873;53.908;27.576;2023-03-23T03:53:46;1010.6;;;10.9;66.9
45113;BME280;30873;53.908;27.576;2023-03-23T03:59:28;1010.5;;;10.9;67.2
45113;BME280;30873;53.908;27.576;2023-03-23T04:03:58;1010.4;;;10.8;67.3
45113;BME280;30873;53.908;27.576;2023-03-23T04:08:42;1010.3;;;10.8;67.5
45113;BME280;30873;53.908;27.576;2023-03-23T04:14:16;1010.3;;;10.8;67.5
45113;BME280;30873;53.908;27.576;2023-03-23T04:18:56;1010.3;;;10.7;67.6
45113;BME280;30873;53.908;27.576;2023-03-23T04:24:26;1010.3;;;10.6;67.8
45113;BME280;30873;53.908;27.576;2023-03-23T04:28:55;1010.3;;;10.6;68.1
45113;BME280;30873;53.908;27.576;2023-03-23T04:33:53;1010.3;;;10.5;68.4
45113;BME280;30873;53.908;27.576;2023-03-23T04:39:14;1010.3;;;10.6;68.6
45113;BME280;30873;53.908;27.576;2023-03-23T04:43:58;1010.2;;;10.7;68.5
45113;BME280;30873;53.908;27.576;2023-03-23T04:49:23;1010.3;;;10.8;68.4
45113;BME280;30873;53.908;27.576;2023-03-23T04:53:42;1010.2;;;10.8;68.2
45113;BME280;30873;53.908;27.576;2023-03-23T04:58:50;1010.3;;;10.8;68.3
45113;BME280;30873;53.908;27.576;2023-03-23T05:04:03;1010.4;;;10.8;68.4
45113;BME280;30873;53.908;27.576;2023-03-23T05:08:58;1010.4;;;10.9;68.3
45113;BME280;30873;53.908;27.576;2023-03-23T05:14:27;1010.3;;;10.8;68.3
45113;BME280;30873;53.908;27.576;2023-03-23T05:18:55;1010.4;;;10.9;68.3
45113;BME280;30873;53.908;27.576;2023-03-23T05:23:33;1010.3;;;11;68.3
45113;BME280;30873;53.908;27.576;2023-03-23T05:29:17;1010.2;;;11.1;68.2
45113;BME280;30873;53.908;27.576;2023-03-23T05:33:57;1010.2;;;11.2;68.1
45113;BME280;30873;53.908;27.576;2023-03-23T05:39:15;1010.1;;;11.3;67.8
45113;BME280;30873;53.908;27.576;2023-03-23T05:43:57;1010.2;;;11.3;67.6
45113;BME280;30873;53.908;27.576;2023-03-23T05:48:33;1010.2;;;11.5;67.5
45113;BME280;30873;53.908;27.576;2023-03-23T05:54:17;1010.1;;;11.5;67.3
45113;BME280;30873;53.908;27.576;2023-03-23T05:58:33;1010.1;;;11.6;67.2
45113;BME280;30873;53.908;27.576;2023-03-23T06:04:27;1010.2;;;11.8;66.9
45113;BME280;30873;53.908;27.576;2023-03-23T06:09:09;1010.2;;;11.8;66.3
45113;BME280;30873;53.908;27.576;2023-03-23T06:13:43;1010.2;;;11.7;66.5
45113;BME280;30873;53.908;27.576;2023-03-23T06:18:35;1010.2;;;11.7;66.5
45113;BME280;30873;53.908;27.576;2023-03-23T06:23:59;1010.2;;;11.8;66.3
45113;BME280;30873;53.908;27.576;2023-03-23T06:29:29;1010.2;;;11.7;66.1
45113;BME280;30873;53.908;27.576;2023-03-23T06:34:11;1010.2;;;11.7;66.3
45113;BME280;30873;53.908;27.576;2023-03-23T06:38:33;1010.3;;;11.7;66.5
45113;BME280;30873;53.908;27.576;2023-03-23T06:44:17;1010.3;;;11.7;66.7
45113;BME280;30873;53.908;27.576;2023-03-23T06:48:57;1010.2;;;11.9;66.5
45113;BME280;30873;53.908;27.576;2023-03-23T06:54:15;1010.2;;;12;66
45113;BME280;30873;53.908;27.576;2023-03-23T06:58:47;1010.1;;;11.9;66
45113;BME280;30873;53.908;27.576;2023-03-23T07:03:33;1010.1;;;12;66
45113;BME280;30873;53.908;27.576;2023-03-23T07:09:17;1010.1;;;12.2;66
45113;BME280;30873;53.908;27.576;2023-03-23T07:14:09;1010;;;12.4;65.5
45113;BME280;30873;53.908;27.576;2023-03-23T07:19:25;1009.9;;;12.3;65.4
45113;BME280;30873;53.908;27.576;2023-03-23T07:23:57;1009.9;;;12.1;65.7
45113;BME280;30873;53.908;27.576;2023-03-23T07:28:55;1009.9;;;12.2;66
45113;BME280;30873;53.908;27.576;2023-03-23T07:34:17;1009.9;;;12.5;65.7
45113;BME280;30873;53.908;27.576;2023-03-23T07:38:53;1009.7;;;12.7;65.1
45113;BME280;30873;53.908;27.576;2023-03-23T07:44:09;1009.7;;;12.8;64.7
45113;BME280;30873;53.908;27.576;2023-03-23T07:49:07;1009.6;;;13.1;64.3
45113;BME280;30873;53.908;27.576;2023-03-23T07:53:33;1009.5;;;13.6;63.4
45113;BME280;30873;53.908;27.576;2023-03-23T07:59:17;1009.5;;;13.9;62.5
45113;BME280;30873;53.908;27.576;2023-03-23T08:03:59;1009.4;;;13.9;62.3
45113;BME280;30873;53.908;27.576;2023-03-23T08:09:27;1009.2;;;14;61.3
45113;BME280;30873;53.908;27.576;2023-03-23T08:13:59;1009.1;;;14.6;59.8
45113;BME280;30873;53.908;27.576;2023-03-23T08:18:53;1009.1;;;15;57.9
45113;BME280;30873;53.908;27.576;2023-03-23T08:24:17;1009.1;;;14.8;57.6
45113;BME280;30873;53.908;27.576;2023-03-23T08:29:09;1009.1;;;14.9;57.8
45113;BME280;30873;53.908;27.576;2023-03-23T08:34:11;1009.1;;;14.9;57.5
45113;BME280;30873;53.908;27.576;2023-03-23T08:38:59;1009.2;;;14.7;57.8
45113;BME280;30873;53.908;27.576;2023-03-23T08:44:09;1009.2;;;14.6;58.2
45113;BME280;30873;53.908;27.576;2023-03-23T08:49:15;1009.1;;;14.4;58.7
45113;BME280;30873;53.908;27.576;2023-03-23T08:53:57;1009;;;14.2;59.4
45113;BME280;30873;53.908;27.576;2023-03-23T08:59:25;1009;;;14.2;59.7
45113;BME280;30873;53.908;27.576;2023-03-23T09:04:05;1008.9;;;14.1;60
45113;BME280;30873;53.908;27.576;2023-03-23T09:08:43;1008.9;;;14.2;60.1
45113;BME280;30873;53.908;27.576;2023-03-23T09:14:17;1008.8;;;14.5;59.7
45113;BME280;30873;53.908;27.576;2023-03-23T09:18:43;1008.9;;;14.9;58.8
45113;BME280;30873;53.908;27.576;2023-03-23T09:24:27;1008.9;;;15.2;57.9
45113;BME280;30873;53.908;27.576;2023-03-23T09:28:59;1008.8;;;15.3;57.6
45113;BME280;30873;53.908;27.576;2023-03-23T09:33:43;1008.9;;;15.6;56.7
45113;BME280;30873;53.908;27.576;2023-03-23T09:39:15;1008.8;;;15.7;56.8
45113;BME280;30873;53.908;27.576;2023-03-23T09:43:36;1008.8;;;15.9;56.2
45113;BME280;30873;53.908;27.576;2023-03-23T09:49:28;1008.8;;;15.8;56.3
45113;BME280;30873;53.908;27.576;2023-03-23T09:54:01;1008.7;;;15.9;56
45113;BME280;30873;53.908;27.576;2023-03-23T09:58:54;1008.6;;;15.8;55.9
45113;BME280;30873;53.908;27.576;2023-03-23T10:04:17;1008.6;;;16;55.8
45113;BME280;30873;53.908;27.576;2023-03-23T10:09:00;1008.5;;;16.3;55
45113;BME280;30873;53.908;27.576;2023-03-23T10:14:29;1008.4;;;17.1;53.5
45113;BME280;30873;53.908;27.576;2023-03-23T10:18:43;1008.3;;;18.1;51.3
45113;BME280;30873;53.908;27.576;2023-03-23T10:24:14;1008.2;;;19.3;48.7
45113;BME280;30873;53.908;27.576;2023-03-23T10:29:17;1008.2;;;19.1;48.3
45113;BME280;30873;53.908;27.576;2023-03-23T10:33:46;1008.1;;;19.8;47.5
45113;BME280;30873;53.908;27.576;2023-03-23T10:39:16;1008.1;;;20;46.5
45113;BME280;30873;53.908;27.576;2023-03-23T10:44:17;1008.1;;;21;45
45113;BME280;30873;53.908;27.576;2023-03-23T10:48:45;1008;;;20.9;44.3
45113;BME280;30873;53.908;27.576;2023-03-23T10:54:25;1007.9;;;20.4;45.1
45113;BME280;30873;53.908;27.576;2023-03-23T10:58:43;1007.9;;;20.7;44.5
45113;BME280;30873;53.908;27.576;2023-03-23T11:04:29;1007.8;;;20.9;44
45113;BME280;30873;53.908;27.576;2023-03-23T11:09:00;1007.7;;;21.3;43.4
45113;BME280;30873;53.908;27.576;2023-03-23T11:13:43;1007.6;;;21.2;43.3
45113;BME280;30873;53.908;27.576;2023-03-23T11:38:43;1007.6;;;21.4;43.2
45113;BME280;30873;53.908;27.576;2023-03-23T11:44:17;1007;;;25.8;35.8
45113;BME280;30873;53.908;27.576;2023-03-23T11:48:57;1007;;;26.7;34.5
45113;BME280;30873;53.908;27.576;2023-03-23T11:54:20;1006.9;;;27.1;33.5
45113;BME280;30873;53.908;27.576;2023-03-23T11:58:59;1006.8;;;26.8;33.9
45113;BME280;30873;53.908;27.576;2023-03-23T12:04:32;1006.8;;;24.6;36.8
45113;BME280;30873;53.908;27.576;2023-03-23T12:09:17;1006.7;;;23.2;39
45113;BME280;30873;53.908;27.576;2023-03-23T12:13:48;1006.7;;;22.6;40.4
45113;BME280;30873;53.908;27.576;2023-03-23T12:19:15;1006.7;;;22;41.5
45113;BME280;30873;53.908;27.576;2023-03-23T12:23:59;1006.5;;;21.7;42.4
45113;BME280;30873;53.908;27.576;2023-03-23T12:28:59;1006.5;;;21.5;43
45113;BME280;30873;53.908;27.576;2023-03-23T12:34:30;1006.5;;;21.4;43.1
45113;BME280;30873;53.908;27.576;2023-03-23T12:38:53;1006.4;;;21.1;43.2
45113;BME280;30873;53.908;27.576;2023-03-23T12:44:15;1006.4;;;20.7;43.8
45113;BME280;30873;53.908;27.576;2023-03-23T12:48:52;1006.4;;;20.5;44.6
45113;BME280;30873;53.908;27.576;2023-03-23T12:53:45;1006.3;;;20.4;45
45113;BME280;30873;53.908;27.576;2023-03-23T12:59:30;1006.3;;;20;45.6
45113;BME280;30873;53.908;27.576;2023-03-23T13:03:56;1006.2;;;19.8;46.3
45113;BME280;30873;53.908;27.576;2023-03-23T13:09:16;1006.2;;;19.8;46.4
45113;BME280;30873;53.908;27.576;2023-03-23T13:13:59;1006;;;19.9;46.3
45113;BME280;30873;53.908;27.576;2023-03-23T13:18:44;1005.9;;;20.3;45.6
45113;BME280;30873;53.908;27.576;2023-03-23T13:24:29;1005.8;;;20.7;45
45113;BME280;30873;53.908;27.576;2023-03-23T13:28:48;1005.8;;;20.6;44.9
45113;BME280;30873;53.908;27.576;2023-03-23T13:34:16;1005.7;;;20.6;45.2
45113;BME280;30873;53.908;27.576;2023-03-23T13:38:48;1005.7;;;20.6;45
45113;BME280;30873;53.908;27.576;2023-03-23T13:43:33;1005.6;;;20.5;45.5
45113;BME280;30873;53.908;27.576;2023-03-23T13:49:31;1005.5;;;20.6;45.3
45113;BME280;30873;53.908;27.576;2023-03-23T13:53:42;1005.4;;;20.5;45.5
45113;BME280;30873;53.908;27.576;2023-03-23T13:59:04;1005.4;;;20.7;45.2
45113;BME280;30873;53.908;27.576;2023-03-23T14:03:58;1005.3;;;20.9;44.8
45113;BME280;30873;53.908;27.576;2023-03-23T14:09:11;1005.3;;;21.4;43.8
45113;BME280;30873;53.908;27.576;2023-03-23T14:14:31;1005.2;;;21.9;42.7
45113;BME280;30873;53.908;27.576;2023-03-23T14:18:35;1005.1;;;22.8;41.2
45113;BME280;30873;53.908;27.576;2023-03-23T14:24:11;1005;;;22.9;40.6
45113;BME280;30873;53.908;27.576;2023-03-23T14:28:59;1005;;;23.3;39.9
45113;BME280;30873;53.908;27.576;2023-03-23T14:33:43;1005;;;23.4;39.3
45113;BME280;30873;53.908;27.576;2023-03-23T14:39:31;1004.9;;;24.3;37
45113;BME280;30873;53.908;27.576;2023-03-23T14:43:43;1004.8;;;25.9;34.6
45113;BME280;30873;53.908;27.576;2023-03-23T14:48:58;1004.8;;;25.4;35.2
45113;BME280;30873;53.908;27.576;2023-03-23T14:53:47;1004.8;;;25.5;35
45113;BME280;30873;53.908;27.576;2023-03-23T14:58:33;1004.8;;;23.9;36.9
45113;BME280;30873;53.908;27.576;2023-03-23T15:04:29;1004.9;;;23.1;38.3
45113;BME280;30873;53.908;27.576;2023-03-23T15:08:33;1004.8;;;22.5;39.6
45113;BME280;30873;53.908;27.576;2023-03-23T15:14:16;1004.7;;;22.9;39.2
45113;BME280;30873;53.908;27.576;2023-03-23T15:18:34;1004.7;;;22.6;39.4
45113;BME280;30873;53.908;27.576;2023-03-23T15:23:33;1004.8;;;22.1;40
45113;BME280;30873;53.908;27.576;2023-03-23T15:29:16;1004.7;;;21.7;40.5
45113;BME280;30873;53.908;27.576;2023-03-23T15:33:43;1004.7;;;21.2;40.9
45113;BME280;30873;53.908;27.576;2023-03-23T15:39:15;1004.7;;;20.7;41.7
45113;BME280;30873;53.908;27.576;2023-03-23T15:44:08;1004.8;;;20.4;43.1
45113;BME280;30873;53.908;27.576;2023-03-23T15:48:46;1004.9;;;19.9;44.9
45113;BME280;30873;53.908;27.576;2023-03-23T15:54:31;1004.9;;;19.6;45.9
45113;BME280;30873;53.908;27.576;2023-03-23T15:58:59;1004.9;;;19.4;46.4
45113;BME280;30873;53.908;27.576;2023-03-23T16:04:16;1004.9;;;19.3;46.7
45113;BME280;30873;53.908;27.576;2023-03-23T16:09:31;1004.9;;;19.3;46.8
45113;BME280;30873;53.908;27.576;2023-03-23T16:13:43;1004.9;;;19.2;46.9
45113;BME280;30873;53.908;27.576;2023-03-23T16:19:33;1004.8;;;19.1;47.2
45113;BME280;30873;53.908;27.576;2023-03-23T16:23:43;1004.7;;;19;47.5
45113;BME280;30873;53.908;27.576;2023-03-23T16:29:33;1004.8;;;18.9;47.7
45113;BME280;30873;53.908;27.576;2023-03-23T16:34:11;1004.7;;;18.8;47.8
45113;BME280;30873;53.908;27.576;2023-03-23T16:39:31;1004.8;;;18.8;48
45113;BME280;30873;53.908;27.576;2023-03-23T16:44:03;1004.7;;;18.7;48.1
45113;BME280;30873;53.908;27.576;2023-03-23T16:49:05;1004.7;;;18.7;48.2
45113;BME280;30873;53.908;27.576;2023-03-23T16:54:31;1004.7;;;18.6;48.3
45113;BME280;30873;53.908;27.576;2023-03-23T16:59:13;1004.8;;;18.5;48.7
45113;BME280;30873;53.908;27.576;2023-03-23T17:04:15;1004.8;;;18.4;48.9
45113;BME280;30873;53.908;27.576;2023-03-23T17:09:03;1004.8;;;18.3;49.1
45113;BME280;30873;53.908;27.576;2023-03-23T17:13:33;1004.8;;;18.3;49
45113;BME280;30873;53.908;27.576;2023-03-23T17:19:25;1004.8;;;18.3;49
45113;BME280;30873;53.908;27.576;2023-03-23T17:24:11;1004.7;;;18.3;48.9
45113;BME280;30873;53.908;27.576;2023-03-23T17:29:11;1004.8;;;18.2;48.9
45113;BME280;30873;53.908;27.576;2023-03-23T17:33:59;1004.8;;;18.1;49
45113;BME280;30873;53.908;27.576;2023-03-23T17:38:33;1004.8;;;18.1;48.8
45113;BME280;30873;53.908;27.576;2023-03-23T17:44:29;1004.8;;;18.1;48.5
45113;BME280;30873;53.908;27.576;2023-03-23T17:49:11;1004.8;;;18.2;48.3
45113;BME280;30873;53.908;27.576;2023-03-23T17:54:27;1004.9;;;18.1;48.2
45113;BME280;30873;53.908;27.576;2023-03-23T17:59:01;1004.9;;;18.1;48.1
45113;BME280;30873;53.908;27.576;2023-03-23T18:03:45;1004.8;;;18;48.2
45113;BME280;30873;53.908;27.576;2023-03-23T18:09:13;1004.8;;;17.9;48.1
45113;BME280;30873;53.908;27.576;2023-03-23T18:14:31;1004.8;;;17.9;48.1
45113;BME280;30873;53.908;27.576;2023-03-23T18:19:13;1004.9;;;17.9;48
45113;BME280;30873;53.908;27.576;2023-03-23T18:24:13;1004.9;;;17.9;48
45113;BME280;30873;53.908;27.576;2023-03-23T18:29:15;1004.8;;;17.8;48
45113;BME280;30873;53.908;27.576;2023-03-23T18:34:27;1004.9;;;17.8;48.2
45113;BME280;30873;53.908;27.576;2023-03-23T18:38:59;1004.8;;;17.8;48.3
45113;BME280;30873;53.908;27.576;2023-03-23T18:44:31;1004.9;;;17.8;48.4
45113;BME280;30873;53.908;27.576;2023-03-23T18:49:03;1004.9;;;17.8;48.5
45113;BME280;30873;53.908;27.576;2023-03-23T18:53:33;1005;;;17.7;48.6
45113;BME280;30873;53.908;27.576;2023-03-23T18:59:17;1005.1;;;17.7;49
45113;BME280;30873;53.908;27.576;2023-03-23T19:04:11;1005.1;;;17.6;49.6
45113;BME280;30873;53.908;27.576;2023-03-23T19:09:29;1005.1;;;17.5;50.2
45113;BME280;30873;53.908;27.576;2023-03-23T19:14:01;1005.1;;;17.5;50
45113;BME280;30873;53.908;27.576;2023-03-23T19:19:01;1005.1;;;17.4;49.9
45113;BME280;30873;53.908;27.576;2023-03-23T19:24:27;1005.1;;;17.5;49.6
45113;BME280;30873;53.908;27.576;2023-03-23T19:29:12;1005.2;;;17.5;49.3
45113;BME280;30873;53.908;27.576;2023-03-23T19:34:29;1005.2;;;17.4;49.3
45113;BME280;30873;53.908;27.576;2023-03-23T19:38:33;1005.3;;;17.4;49.6
45113;BME280;30873;53.908;27.576;2023-03-23T19:43:33;1005.4;;;17.2;50.4
45113;BME280;30873;53.908;27.576;2023-03-23T19:49:27;1005.5;;;17.2;51.2
45113;BME280;30873;53.908;27.576;2023-03-23T19:54:11;1005.6;;;17;52.7
45113;BME280;30873;53.908;27.576;2023-03-23T19:59:27;1005.7;;;16.6;55.1
45113;BME280;30873;53.908;27.576;2023-03-23T20:04:01;1005.7;;;16.3;56.8
45113;BME280;30873;53.908;27.576;2023-03-23T20:08:45;1005.7;;;16;58
45113;BME280;30873;53.908;27.576;2023-03-23T20:14:29;1005.8;;;15.8;59.2
45113;BME280;30873;53.908;27.576;2023-03-23T20:19:11;1005.8;;;15.7;60.2
45113;BME280;30873;53.908;27.576;2023-03-23T20:24:27;1005.8;;;15.7;60.8
45113;BME280;30873;53.908;27.576;2023-03-23T20:29:02;1005.7;;;15.5;61.6
45113;BME280;30873;53.908;27.576;2023-03-23T20:33:33;1005.8;;;15.4;62.3
45113;BME280;30873;53.908;27.576;2023-03-23T20:38:43;1005.7;;;15.3;63.1
45113;BME280;30873;53.908;27.576;2023-03-23T20:44:11;1005.7;;;15.3;63.7
45113;BME280;30873;53.908;27.576;2023-03-23T20:49:27;1005.7;;;15.2;64.1
45113;BME280;30873;53.908;27.576;2023-03-23T20:54:01;1005.7;;;15.1;64.7
45113;BME280;30873;53.908;27.576;2023-03-23T20:58:33;1005.7;;;15;65.5
45113;BME280;30873;53.908;27.576;2023-03-23T21:03:59;1005.7;;;15;65.9
45113;BME280;30873;53.908;27.576;2023-03-23T21:09:09;1005.6;;;15.1;66.4
45113;BME280;30873;53.908;27.576;2023-03-23T21:14:29;1005.6;;;15.1;66.6
45113;BME280;30873;53.908;27.576;2023-03-23T21:18:59;1005.7;;;15;66.9
45113;BME280;30873;53.908;27.576;2023-03-23T21:23:43;1005.7;;;14.9;67.4
45113;BME280;30873;53.908;27.576;2023-03-23T21:29:01;1005.6;;;14.8;67.9
45113;BME280;30873;53.908;27.576;2023-03-23T21:33:59;1005.6;;;14.7;68.4
45113;BME280;30873;53.908;27.576;2023-03-23T21:39:29;1005.6;;;14.8;68.7
45113;BME280;30873;53.908;27.576;2023-03-23T21:43:49;1005.6;;;14.7;69
45113;BME280;30873;53.908;27.576;2023-03-23T21:48:33;1005.6;;;14.7;69.2
45113;BME280;30873;53.908;27.576;2023-03-23T21:54:15;1005.6;;;14.7;69.5
45113;BME280;30873;53.908;27.576;2023-03-23T21:58:36;1005.7;;;14.6;69.7
45113;BME280;30873;53.908;27.576;2023-03-23T22:04:29;1005.7;;;14.3;70.2
45113;BME280;30873;53.908;27.576;2023-03-23T22:08:44;1005.7;;;14.2;70.5
45113;BME280;30873;53.908;27.576;2023-03-23T22:13:59;1005.7;;;14.1;70.4
45113;BME280;30873;53.908;27.576;2023-03-23T22:18:50;1005.7;;;14;70.3
45113;BME280;30873;53.908;27.576;2023-03-23T22:24:13;1005.7;;;13.9;70.1
45113;BME280;30873;53.908;27.576;2023-03-23T22:29:31;1005.6;;;13.9;70.2
45113;BME280;30873;53.908;27.576;2023-03-23T22:33:59;1005.7;;;13.9;70.1
45113;BME280;30873;53.908;27.576;2023-03-23T22:38:47;1005.7;;;13.8;70
45113;BME280;30873;53.908;27.576;2023-03-23T22:44:17;1005.8;;;13.7;70
45113;BME280;30873;53.908;27.576;2023-03-23T22:49:13;1005.9;;;13.6;70
45113;BME280;30873;53.908;27.576;2023-03-23T22:54:31;1005.9;;;13.5;70.1
45113;BME280;30873;53.908;27.576;2023-03-23T22:58:59;1006;;;13.5;70.2
45113;BME280;30873;53.908;27.576;2023-03-23T23:03:45;1006;;;13.4;70.5
45113;BME280;30873;53.908;27.576;2023-03-23T23:08:49;1006.1;;;13.3;70.6
45113;BME280;30873;53.908;27.576;2023-03-23T23:14:13;1006.1;;;13.3;70.9
45113;BME280;30873;53.908;27.576;2023-03-23T23:19:31;1006.2;;;13.2;70.9
45113;BME280;30873;53.908;27.576;2023-03-23T23:24:01;1006.3;;;13.2;70.9
45113;BME280;30873;53.908;27.576;2023-03-23T23:28:43;1006.3;;;13.1;71.1
45113;BME280;30873;53.908;27.576;2023-03-23T23:33:43;1006.3;;;13.2;71.2
45113;BME280;30873;53.908;27.576;2023-03-23T23:39:11;1006.2;;;13.1;71.2
45113;BME280;30873;53.908;27.576;2023-03-23T23:44:29;1006.2;;;13.2;71.2
45113;BME280;30873;53.908;27.576;2023-03-23T23:48:45;1006.2;;;13.2;71.1
45113;BME280;30873;53.908;27.576;2023-03-23T23:53:49;1006;;;13.2;71.1
45113;BME280;30873;53.908;27.576;2023-03-23T23:59:01;1006;;;13.2;71
